sensor_id;sensor_type;location;lat;lon;timestamp;temperature;humidity
5419;DHT22;2732;52.092;11.556;2023-05-10T00:03:40;13.10;66.10
5419;DHT22;2732;52.092;11.556;2023-05-10T00:08:41;13.00;66.60
5419;DHT22;2732;52.092;11.556;2023-05-10T00:13:42;12.90;66.80
5419;DHT22;2732;52.092;11.556;2023-05-10T00:18:43;12.90;67.30
5419;DHT22;2732;52.092;11.556;2023-05-10T00:23:43;12.80;67.50
5419;DHT22;2732;52.092;11.556;2023-05-10T00:28:44;12.80;67.60
5419;DHT22;2732;52.092;11.556;2023-05-10T00:33:44;12.70;68.40
5419;DHT22;2732;52.092;11.556;2023-05-10T00:38:45;12.70;68.30
5419;DHT22;2732;52.092;11.556;2023-05-10T00:43:46;12.60;68.80
5419;DHT22;2732;52.092;11.556;2023-05-10T00:48:47;12.60;69.30
5419;DHT22;2732;52.092;11.556;2023-05-10T00:53:48;12.50;69.50
5419;DHT22;2732;52.092;11.556;2023-05-10T00:58:50;12.50;69.90
5419;DHT22;2732;52.092;11.556;2023-05-10T01:03:51;12.40;70.20
5419;DHT22;2732;52.092;11.556;2023-05-10T01:08:52;12.40;71.00
5419;DHT22;2732;52.092;11.556;2023-05-10T01:13:56;12.30;70.60
5419;DHT22;2732;52.092;11.556;2023-05-10T01:18:58;12.30;71.20
5419;DHT22;2732;52.092;11.556;2023-05-10T01:29:32;12.20;72.10
5419;DHT22;2732;52.092;11.556;2023-05-10T01:40:08;12.10;72.30
5419;DHT22;2732;52.092;11.556;2023-05-10T01:45:18;12.10;72.70
5419;DHT22;2732;52.092;11.556;2023-05-10T01:50:25;12.00;72.70
5419;DHT22;2732;52.092;11.556;2023-05-10T01:55:31;12.00;73.30
5419;DHT22;2732;52.092;11.556;2023-05-10T02:00:34;12.00;74.00
5419;DHT22;2732;52.092;11.556;2023-05-10T02:05:36;11.90;74.30
5419;DHT22;2732;52.092;11.556;2023-05-10T02:10:39;11.90;75.10
5419;DHT22;2732;52.092;11.556;2023-05-10T02:15:41;11.80;75.00
5419;DHT22;2732;52.092;11.556;2023-05-10T02:20:45;11.80;75.30
5419;DHT22;2732;52.092;11.556;2023-05-10T02:25:48;11.70;76.40
5419;DHT22;2732;52.092;11.556;2023-05-10T02:30:49;11.70;76.50
5419;DHT22;2732;52.092;11.556;2023-05-10T02:35:52;11.70;76.70
5419;DHT22;2732;52.092;11.556;2023-05-10T02:40:53;11.70;77.20
5419;DHT22;2732;52.092;11.556;2023-05-10T02:45:54;11.60;77.10
5419;DHT22;2732;52.092;11.556;2023-05-10T02:50:56;11.50;77.40
5419;DHT22;2732;52.092;11.556;2023-05-10T02:56:05;11.50;78.40
5419;DHT22;2732;52.092;11.556;2023-05-10T03:01:07;11.50;78.20
5419;DHT22;2732;52.092;11.556;2023-05-10T03:06:08;11.40;79.30
5419;DHT22;2732;52.092;11.556;2023-05-10T03:11:30;11.40;79.40
5419;DHT22;2732;52.092;11.556;2023-05-10T03:17:10;11.30;79.50
5419;DHT22;2732;52.092;11.556;2023-05-10T03:22:36;11.30;80.80
5419;DHT22;2732;52.092;11.556;2023-05-10T03:27:43;11.30;80.20
5419;DHT22;2732;52.092;11.556;2023-05-10T03:32:44;11.20;80.70
5419;DHT22;2732;52.092;11.556;2023-05-10T03:37:44;11.20;80.70
5419;DHT22;2732;52.092;11.556;2023-05-10T03:42:45;11.20;81.50
5419;DHT22;2732;52.092;11.556;2023-05-10T03:47:45;11.10;81.80
5419;DHT22;2732;52.092;11.556;2023-05-10T03:52:46;11.10;82.30
5419;DHT22;2732;52.092;11.556;2023-05-10T03:57:47;11.10;82.00
5419;DHT22;2732;52.092;11.556;2023-05-10T04:02:49;11.10;83.10
5419;DHT22;2732;52.092;11.556;2023-05-10T04:07:50;11.10;83.10
5419;DHT22;2732;52.092;11.556;2023-05-10T04:12:51;11.10;82.80
5419;DHT22;2732;52.092;11.556;2023-05-10T04:17:52;11.20;82.80
5419;DHT22;2732;52.092;11.556;2023-05-10T04:22:56;11.20;83.50
5419;DHT22;2732;52.092;11.556;2023-05-10T04:27:57;11.20;84.60
5419;DHT22;2732;52.092;11.556;2023-05-10T04:32:59;11.20;84.10
5419;DHT22;2732;52.092;11.556;2023-05-10T04:38:00;11.30;85.10
5419;DHT22;2732;52.092;11.556;2023-05-10T04:43:01;11.40;85.50
5419;DHT22;2732;52.092;11.556;2023-05-10T04:48:02;11.40;85.80
5419;DHT22;2732;52.092;11.556;2023-05-10T04:53:02;11.50;86.20
5419;DHT22;2732;52.092;11.556;2023-05-10T04:58:03;11.70;86.00
5419;DHT22;2732;52.092;11.556;2023-05-10T05:03:03;11.70;86.10
5419;DHT22;2732;52.092;11.556;2023-05-10T05:08:05;11.80;86.00
5419;DHT22;2732;52.092;11.556;2023-05-10T05:13:05;12.00;86.10
5419;DHT22;2732;52.092;11.556;2023-05-10T05:18:06;12.10;86.10
5419;DHT22;2732;52.092;11.556;2023-05-10T05:23:07;12.30;86.20
5419;DHT22;2732;52.092;11.556;2023-05-10T05:28:07;12.40;86.00
5419;DHT22;2732;52.092;11.556;2023-05-10T05:33:08;12.50;85.70
5419;DHT22;2732;52.092;11.556;2023-05-10T05:38:08;12.70;85.70
5419;DHT22;2732;52.092;11.556;2023-05-10T05:43:09;12.80;85.40
5419;DHT22;2732;52.092;11.556;2023-05-10T05:48:10;12.90;85.00
5419;DHT22;2732;52.092;11.556;2023-05-10T05:53:10;13.20;85.10
5419;DHT22;2732;52.092;11.556;2023-05-10T05:58:11;13.40;85.10
5419;DHT22;2732;52.092;11.556;2023-05-10T06:03:12;13.60;85.00
5419;DHT22;2732;52.092;11.556;2023-05-10T06:08:12;13.70;84.50
5419;DHT22;2732;52.092;11.556;2023-05-10T06:13:38;13.80;84.80
5419;DHT22;2732;52.092;11.556;2023-05-10T06:18:59;13.90;84.80
5419;DHT22;2732;52.092;11.556;2023-05-10T06:24:00;13.90;84.80
5419;DHT22;2732;52.092;11.556;2023-05-10T06:29:01;14.00;84.70
5419;DHT22;2732;52.092;11.556;2023-05-10T06:34:02;14.20;84.40
5419;DHT22;2732;52.092;11.556;2023-05-10T06:39:02;14.40;84.10
5419;DHT22;2732;52.092;11.556;2023-05-10T06:44:03;14.70;84.70
5419;DHT22;2732;52.092;11.556;2023-05-10T06:49:04;14.90;83.70
5419;DHT22;2732;52.092;11.556;2023-05-10T06:54:05;15.00;83.70
5419;DHT22;2732;52.092;11.556;2023-05-10T06:59:05;15.20;83.70
5419;DHT22;2732;52.092;11.556;2023-05-10T07:04:06;15.30;83.70
5419;DHT22;2732;52.092;11.556;2023-05-10T07:09:08;15.50;83.70
5419;DHT22;2732;52.092;11.556;2023-05-10T07:14:08;15.70;83.80
5419;DHT22;2732;52.092;11.556;2023-05-10T07:19:09;15.80;83.60
5419;DHT22;2732;52.092;11.556;2023-05-10T07:24:09;16.00;83.60
5419;DHT22;2732;52.092;11.556;2023-05-10T07:29:10;16.10;83.30
5419;DHT22;2732;52.092;11.556;2023-05-10T07:34:11;16.30;83.10
5419;DHT22;2732;52.092;11.556;2023-05-10T07:44:59;16.70;82.30
5419;DHT22;2732;52.092;11.556;2023-05-10T07:56:27;17.00;82.20
5419;DHT22;2732;52.092;11.556;2023-05-10T08:01:33;17.10;82.30
5419;DHT22;2732;52.092;11.556;2023-05-10T08:06:34;17.30;82.20
5419;DHT22;2732;52.092;11.556;2023-05-10T08:11:35;17.50;82.40
5419;DHT22;2732;52.092;11.556;2023-05-10T08:17:00;17.50;82.10
5419;DHT22;2732;52.092;11.556;2023-05-10T08:33:58;17.20;83.40
5419;DHT22;2732;52.092;11.556;2023-05-10T08:39:00;17.30;83.80
5419;DHT22;2732;52.092;11.556;2023-05-10T08:44:04;17.30;83.60
5419;DHT22;2732;52.092;11.556;2023-05-10T08:49:06;17.20;84.00
5419;DHT22;2732;52.092;11.556;2023-05-10T08:54:08;17.10;84.80
5419;DHT22;2732;52.092;11.556;2023-05-10T08:59:09;17.00;86.70
5419;DHT22;2732;52.092;11.556;2023-05-10T09:04:10;16.90;87.30
5419;DHT22;2732;52.092;11.556;2023-05-10T09:09:12;16.80;87.80
5419;DHT22;2732;52.092;11.556;2023-05-10T09:14:13;16.80;88.20
5419;DHT22;2732;52.092;11.556;2023-05-10T09:19:14;16.80;88.40
5419;DHT22;2732;52.092;11.556;2023-05-10T09:24:15;16.80;88.80
5419;DHT22;2732;52.092;11.556;2023-05-10T09:29:15;16.80;88.90
5419;DHT22;2732;52.092;11.556;2023-05-10T09:34:20;16.80;89.10
5419;DHT22;2732;52.092;11.556;2023-05-10T09:39:36;17.00;89.80
5419;DHT22;2732;52.092;11.556;2023-05-10T09:44:37;17.20;90.10
5419;DHT22;2732;52.092;11.556;2023-05-10T09:49:41;17.40;90.00
5419;DHT22;2732;52.092;11.556;2023-05-10T09:54:52;17.60;90.20
5419;DHT22;2732;52.092;11.556;2023-05-10T09:59:54;17.90;90.20
5419;DHT22;2732;52.092;11.556;2023-05-10T10:04:55;18.20;90.50
5419;DHT22;2732;52.092;11.556;2023-05-10T10:09:56;18.50;90.70
5419;DHT22;2732;52.092;11.556;2023-05-10T10:14:57;18.60;90.80
5419;DHT22;2732;52.092;11.556;2023-05-10T10:20:03;18.70;90.90
5419;DHT22;2732;52.092;11.556;2023-05-10T10:25:07;18.70;90.80
5419;DHT22;2732;52.092;11.556;2023-05-10T10:30:13;18.80;90.80
5419;DHT22;2732;52.092;11.556;2023-05-10T10:35:19;18.80;91.00
5419;DHT22;2732;52.092;11.556;2023-05-10T10:40:28;18.90;91.10
5419;DHT22;2732;52.092;11.556;2023-05-10T10:45:30;19.00;91.20
5419;DHT22;2732;52.092;11.556;2023-05-10T10:50:31;19.10;91.50
5419;DHT22;2732;52.092;11.556;2023-05-10T10:55:47;19.30;91.40
5419;DHT22;2732;52.092;11.556;2023-05-10T11:00:48;19.60;91.20
5419;DHT22;2732;52.092;11.556;2023-05-10T11:05:49;19.80;91.60
5419;DHT22;2732;52.092;11.556;2023-05-10T11:16:23;19.90;91.70
5419;DHT22;2732;52.092;11.556;2023-05-10T11:21:25;20.10;91.70
5419;DHT22;2732;52.092;11.556;2023-05-10T11:26:34;20.20;91.60
5419;DHT22;2732;52.092;11.556;2023-05-10T11:31:45;20.30;91.90
5419;DHT22;2732;52.092;11.556;2023-05-10T11:36:51;20.30;92.10
5419;DHT22;2732;52.092;11.556;2023-05-10T11:41:52;20.30;92.00
5419;DHT22;2732;52.092;11.556;2023-05-10T11:46:52;20.20;91.90
5419;DHT22;2732;52.092;11.556;2023-05-10T11:51:53;20.10;92.60
5419;DHT22;2732;52.092;11.556;2023-05-10T11:57:04;19.90;92.40
5419;DHT22;2732;52.092;11.556;2023-05-10T12:02:05;19.90;93.10
5419;DHT22;2732;52.092;11.556;2023-05-10T12:07:05;20.10;92.70
5419;DHT22;2732;52.092;11.556;2023-05-10T12:12:06;20.30;92.60
5419;DHT22;2732;52.092;11.556;2023-05-10T12:17:12;20.40;92.60
5419;DHT22;2732;52.092;11.556;2023-05-10T12:22:13;20.40;92.80
5419;DHT22;2732;52.092;11.556;2023-05-10T12:27:14;20.30;93.10
5419;DHT22;2732;52.092;11.556;2023-05-10T12:32:15;20.00;93.50
5419;DHT22;2732;52.092;11.556;2023-05-10T12:37:15;19.80;94.10
5419;DHT22;2732;52.092;11.556;2023-05-10T12:42:16;19.70;94.30
5419;DHT22;2732;52.092;11.556;2023-05-10T12:47:17;19.70;94.80
5419;DHT22;2732;52.092;11.556;2023-05-10T12:52:17;19.70;95.10
5419;DHT22;2732;52.092;11.556;2023-05-10T12:57:19;19.70;95.30
5419;DHT22;2732;52.092;11.556;2023-05-10T13:02:21;19.70;95.40
5419;DHT22;2732;52.092;11.556;2023-05-10T13:07:23;19.70;95.50
5419;DHT22;2732;52.092;11.556;2023-05-10T13:12:23;19.70;95.60
5419;DHT22;2732;52.092;11.556;2023-05-10T13:17:25;19.90;95.60
5419;DHT22;2732;52.092;11.556;2023-05-10T13:22:26;20.10;95.70
5419;DHT22;2732;52.092;11.556;2023-05-10T13:27:26;20.30;95.70
5419;DHT22;2732;52.092;11.556;2023-05-10T13:32:28;20.60;95.30
5419;DHT22;2732;52.092;11.556;2023-05-10T13:37:29;20.90;95.20
5419;DHT22;2732;52.092;11.556;2023-05-10T13:42:30;21.10;94.70
5419;DHT22;2732;52.092;11.556;2023-05-10T13:47:33;21.30;95.10
5419;DHT22;2732;52.092;11.556;2023-05-10T13:52:34;21.20;95.00
5419;DHT22;2732;52.092;11.556;2023-05-10T13:57:35;21.10;95.10
5419;DHT22;2732;52.092;11.556;2023-05-10T14:02:36;21.10;95.20
5419;DHT22;2732;52.092;11.556;2023-05-10T14:07:37;21.20;95.10
5419;DHT22;2732;52.092;11.556;2023-05-10T14:12:38;21.20;94.90
5419;DHT22;2732;52.092;11.556;2023-05-10T14:17:39;21.30;94.90
5419;DHT22;2732;52.092;11.556;2023-05-10T14:22:41;21.30;94.80
5419;DHT22;2732;52.092;11.556;2023-05-10T14:27:42;21.40;94.80
5419;DHT22;2732;52.092;11.556;2023-05-10T14:32:43;21.40;94.90
5419;DHT22;2732;52.092;11.556;2023-05-10T14:37:43;21.40;94.70
5419;DHT22;2732;52.092;11.556;2023-05-10T14:42:44;21.30;94.70
5419;DHT22;2732;52.092;11.556;2023-05-10T14:47:44;21.20;94.90
5419;DHT22;2732;52.092;11.556;2023-05-10T14:52:45;21.20;94.70
5419;DHT22;2732;52.092;11.556;2023-05-10T14:57:46;21.10;94.60
5419;DHT22;2732;52.092;11.556;2023-05-10T15:02:47;21.10;94.50
5419;DHT22;2732;52.092;11.556;2023-05-10T15:07:55;21.10;94.70
5419;DHT22;2732;52.092;11.556;2023-05-10T15:12:56;21.00;94.80
5419;DHT22;2732;52.092;11.556;2023-05-10T15:17:56;21.00;95.00
5419;DHT22;2732;52.092;11.556;2023-05-10T15:22:57;21.10;94.70
5419;DHT22;2732;52.092;11.556;2023-05-10T15:27:57;21.20;94.60
5419;DHT22;2732;52.092;11.556;2023-05-10T15:32:58;21.30;94.40
5419;DHT22;2732;52.092;11.556;2023-05-10T15:37:59;21.50;94.10
5419;DHT22;2732;52.092;11.556;2023-05-10T15:43:02;21.70;93.90
5419;DHT22;2732;52.092;11.556;2023-05-10T15:48:03;21.80;94.00
5419;DHT22;2732;52.092;11.556;2023-05-10T15:53:04;22.10;93.90
5419;DHT22;2732;52.092;11.556;2023-05-10T15:58:04;22.10;93.80
5419;DHT22;2732;52.092;11.556;2023-05-10T16:03:05;22.00;93.90
5419;DHT22;2732;52.092;11.556;2023-05-10T16:08:06;22.00;93.80
5419;DHT22;2732;52.092;11.556;2023-05-10T16:13:07;21.90;93.70
5419;DHT22;2732;52.092;11.556;2023-05-10T16:18:08;21.90;93.60
5419;DHT22;2732;52.092;11.556;2023-05-10T16:23:09;21.80;93.60
5419;DHT22;2732;52.092;11.556;2023-05-10T16:28:10;21.70;93.70
5419;DHT22;2732;52.092;11.556;2023-05-10T16:33:11;21.60;93.60
5419;DHT22;2732;52.092;11.556;2023-05-10T16:38:11;21.50;93.60
5419;DHT22;2732;52.092;11.556;2023-05-10T16:43:12;21.40;93.70
5419;DHT22;2732;52.092;11.556;2023-05-10T16:48:12;21.30;93.80
5419;DHT22;2732;52.092;11.556;2023-05-10T16:53:13;21.30;93.90
5419;DHT22;2732;52.092;11.556;2023-05-10T16:58:14;21.20;94.20
5419;DHT22;2732;52.092;11.556;2023-05-10T17:03:14;21.10;94.10
5419;DHT22;2732;52.092;11.556;2023-05-10T17:08:15;21.00;94.10
5419;DHT22;2732;52.092;11.556;2023-05-10T17:13:16;20.90;94.20
5419;DHT22;2732;52.092;11.556;2023-05-10T17:18:16;20.80;94.30
5419;DHT22;2732;52.092;11.556;2023-05-10T17:23:18;20.70;94.20
5419;DHT22;2732;52.092;11.556;2023-05-10T17:28:20;20.60;94.30
5419;DHT22;2732;52.092;11.556;2023-05-10T17:33:21;20.50;94.50
5419;DHT22;2732;52.092;11.556;2023-05-10T17:38:22;20.40;94.80
5419;DHT22;2732;52.092;11.556;2023-05-10T17:43:22;20.30;94.70
5419;DHT22;2732;52.092;11.556;2023-05-10T17:48:25;20.20;94.70
5419;DHT22;2732;52.092;11.556;2023-05-10T17:53:26;20.10;94.70
5419;DHT22;2732;52.092;11.556;2023-05-10T17:58:27;20.00;94.80
5419;DHT22;2732;52.092;11.556;2023-05-10T18:03:28;19.80;95.00
5419;DHT22;2732;52.092;11.556;2023-05-10T18:08:28;19.70;95.10
5419;DHT22;2732;52.092;11.556;2023-05-10T18:13:29;19.50;95.30
5419;DHT22;2732;52.092;11.556;2023-05-10T18:18:30;19.30;95.40
5419;DHT22;2732;52.092;11.556;2023-05-10T18:23:31;19.10;95.60
5419;DHT22;2732;52.092;11.556;2023-05-10T18:28:31;18.90;95.80
5419;DHT22;2732;52.092;11.556;2023-05-10T18:33:32;18.70;95.90
5419;DHT22;2732;52.092;11.556;2023-05-10T18:38:33;18.60;96.20
5419;DHT22;2732;52.092;11.556;2023-05-10T18:43:33;18.40;96.40
5419;DHT22;2732;52.092;11.556;2023-05-10T18:48:34;18.20;96.70
5419;DHT22;2732;52.092;11.556;2023-05-10T18:53:35;18.00;96.90
5419;DHT22;2732;52.092;11.556;2023-05-10T18:58:36;17.90;97.40
5419;DHT22;2732;52.092;11.556;2023-05-10T19:03:37;17.80;97.40
5419;DHT22;2732;52.092;11.556;2023-05-10T19:08:38;17.60;97.80
5419;DHT22;2732;52.092;11.556;2023-05-10T19:13:41;17.50;98.00
5419;DHT22;2732;52.092;11.556;2023-05-10T19:18:44;17.40;98.50
5419;DHT22;2732;52.092;11.556;2023-05-10T19:23:46;17.30;98.50
5419;DHT22;2732;52.092;11.556;2023-05-10T19:28:49;17.20;98.90
5419;DHT22;2732;52.092;11.556;2023-05-10T19:33:51;17.00;99.10
5419;DHT22;2732;52.092;11.556;2023-05-10T19:38:52;16.90;99.30
5419;DHT22;2732;52.092;11.556;2023-05-10T19:43:53;16.80;99.60
5419;DHT22;2732;52.092;11.556;2023-05-10T19:48:54;16.70;99.90
5419;DHT22;2732;52.092;11.556;2023-05-10T19:53:54;16.60;99.90
5419;DHT22;2732;52.092;11.556;2023-05-10T19:58:55;16.50;99.90
5419;DHT22;2732;52.092;11.556;2023-05-10T20:03:55;16.40;99.90
5419;DHT22;2732;52.092;11.556;2023-05-10T20:09:02;16.20;99.90
5419;DHT22;2732;52.092;11.556;2023-05-10T20:14:03;16.10;99.90
5419;DHT22;2732;52.092;11.556;2023-05-10T20:19:04;16.00;99.90
5419;DHT22;2732;52.092;11.556;2023-05-10T20:24:06;15.90;99.90
5419;DHT22;2732;52.092;11.556;2023-05-10T20:29:08;15.80;99.90
5419;DHT22;2732;52.092;11.556;2023-05-10T20:34:08;15.70;99.90
5419;DHT22;2732;52.092;11.556;2023-05-10T20:39:09;15.60;99.90
5419;DHT22;2732;52.092;11.556;2023-05-10T20:44:13;15.50;99.90
5419;DHT22;2732;52.092;11.556;2023-05-10T20:49:14;15.50;99.90
5419;DHT22;2732;52.092;11.556;2023-05-10T20:54:14;15.40;99.90
5419;DHT22;2732;52.092;11.556;2023-05-10T20:59:15;15.30;99.90
5419;DHT22;2732;52.092;11.556;2023-05-10T21:04:17;15.20;99.90
5419;DHT22;2732;52.092;11.556;2023-05-10T21:09:17;15.10;99.90
5419;DHT22;2732;52.092;11.556;2023-05-10T21:14:19;15.00;99.90
5419;DHT22;2732;52.092;11.556;2023-05-10T21:19:22;14.90;99.90
5419;DHT22;2732;52.092;11.556;2023-05-10T21:24:23;14.90;99.90
5419;DHT22;2732;52.092;11.556;2023-05-10T21:29:23;14.80;99.90
5419;DHT22;2732;52.092;11.556;2023-05-10T21:34:24;14.70;99.90
5419;DHT22;2732;52.092;11.556;2023-05-10T21:39:25;14.70;99.90
5419;DHT22;2732;52.092;11.556;2023-05-10T21:44:26;14.60;99.90
5419;DHT22;2732;52.092;11.556;2023-05-10T21:49:27;14.60;99.90
5419;DHT22;2732;52.092;11.556;2023-05-10T21:54:27;14.50;99.90
5419;DHT22;2732;52.092;11.556;2023-05-10T21:59:28;14.50;99.90
5419;DHT22;2732;52.092;11.556;2023-05-10T22:04:28;14.40;99.90
5419;DHT22;2732;52.092;11.556;2023-05-10T22:09:29;14.40;99.90
5419;DHT22;2732;52.092;11.556;2023-05-10T22:14:30;14.40;99.90
5419;DHT22;2732;52.092;11.556;2023-05-10T22:19:30;14.30;99.90
5419;DHT22;2732;52.092;11.556;2023-05-10T22:24:31;14.30;99.90
5419;DHT22;2732;52.092;11.556;2023-05-10T22:29:31;14.30;99.90
5419;DHT22;2732;52.092;11.556;2023-05-10T22:34:32;14.20;99.90
5419;DHT22;2732;52.092;11.556;2023-05-10T22:39:33;14.20;99.90
5419;DHT22;2732;52.092;11.556;2023-05-10T22:44:34;14.20;99.90
5419;DHT22;2732;52.092;11.556;2023-05-10T22:49:34;14.10;99.90
5419;DHT22;2732;52.092;11.556;2023-05-10T22:54:35;14.10;99.90
5419;DHT22;2732;52.092;11.556;2023-05-10T22:59:35;14.10;99.90
5419;DHT22;2732;52.092;11.556;2023-05-10T23:04:36;14.00;99.90
5419;DHT22;2732;52.092;11.556;2023-05-10T23:09:37;14.00;99.90
5419;DHT22;2732;52.092;11.556;2023-05-10T23:14:37;14.00;99.90
5419;DHT22;2732;52.092;11.556;2023-05-10T23:19:39;14.00;99.90
5419;DHT22;2732;52.092;11.556;2023-05-10T23:24:40;13.90;99.90
5419;DHT22;2732;52.092;11.556;2023-05-10T23:29:40;13.90;99.90
5419;DHT22;2732;52.092;11.556;2023-05-10T23:34:44;13.90;99.90
5419;DHT22;2732;52.092;11.556;2023-05-10T23:39:45;13.90;99.90
5419;DHT22;2732;52.092;11.556;2023-05-10T23:44:45;13.90;99.90
5419;DHT22;2732;52.092;11.556;2023-05-10T23:49:48;13.80;99.90
5419;DHT22;2732;52.092;11.556;2023-05-10T23:54:49;13.80;99.90
5419;DHT22;2732;52.092;11.556;2023-05-10T23:59:50;13.80;99.90
